Search for airport 
image banner adimage banner adimage banner ad
image banner ad

53CL - Lofty Redwoods

Located in Anchor Bay, United States

ICAO - 53CL, IATA -

Data provided by Airmate  

General information

Coordinates: N38°51'35" W123°35'26"
Elevation is 1317 feet MSL.
Magnetic variation is 17° East
View others Airports in California

Operational data

Special qualification required
Current time UTC:
Current local time:
Weather at : KUKI - Ukiah Muni ( 45 km )
METAR: KUKI 270556Z AUTO 17006KT 10SM CLR 20/07 A2994 RMK AO2 SLP130 T02000072 10272 20200 51014
TAF: KUKI 270538Z 2706/2806 18008KT P6SM BKN250 FM270800 VRB05KT P6SM BKN250 FM272100 15008KT P6SM BKN250 FM280400 VRB04KT P6SM SCT250
View NOTAMs / SUP AIP / TFR affecting this airport [VIEW]
Communications frequencies: [VIEW]

Runways:

RWY identifierQFULength (ft)Width (ft)SurfaceLDA (ft)
13320060OTHER
31320060OTHER

Airport contact information

Address: Anchor Bay United States

Satellite view of 53CL